createdAt,value
2017-08-26T00:01:57.925Z,43.93
2017-08-26T00:04:25.360Z,52.57
2017-08-26T00:06:52.799Z,44.80
2017-08-26T00:09:20.237Z,48.17
2017-08-26T00:11:47.681Z,46.20
2017-08-26T00:14:15.121Z,42.13
2017-08-26T00:16:42.743Z,50.80
2017-08-26T00:19:10.184Z,37.00
2017-08-26T00:21:37.630Z,46.67
2017-08-26T00:24:05.073Z,49.07
2017-08-26T00:26:32.508Z,39.77
2017-08-26T00:28:59.944Z,42.50
2017-08-26T00:31:27.382Z,37.97
2017-08-26T00:33:54.828Z,41.00
2017-08-26T00:36:22.261Z,35.10
2017-08-26T00:38:49.697Z,41.43
2017-08-26T00:41:17.129Z,37.47
2017-08-26T00:43:44.572Z,36.13
2017-08-26T00:46:12.006Z,33.93
2017-08-26T00:48:39.450Z,41.57
2017-08-26T00:51:06.886Z,36.73
2017-08-26T00:53:34.320Z,36.70
2017-08-26T00:56:01.748Z,38.53
2017-08-26T00:58:29.193Z,34.90
2017-08-26T01:00:56.620Z,43.73
2017-08-26T01:03:24.057Z,37.60
2017-08-26T01:05:51.499Z,41.03
2017-08-26T01:08:18.976Z,30.27
2017-08-26T01:10:46.405Z,29.63
2017-08-26T01:13:13.856Z,35.27
2017-08-26T01:15:41.293Z,28.80
2017-08-26T01:18:08.717Z,28.87
2017-08-26T01:20:36.166Z,33.13
2017-08-26T01:23:03.592Z,31.70
2017-08-26T01:25:31.028Z,32.43
2017-08-26T01:27:58.465Z,36.20
2017-08-26T01:30:25.900Z,50.23
2017-08-26T01:32:53.332Z,29.70
2017-08-26T01:35:20.810Z,24.33
2017-08-26T01:37:48.230Z,30.57
2017-08-26T01:40:15.664Z,27.50
2017-08-26T01:42:43.092Z,30.40
2017-08-26T01:45:10.537Z,24.97
2017-08-26T01:47:37.964Z,32.43
2017-08-26T01:50:05.401Z,36.33
2017-08-26T01:52:32.851Z,33.30
2017-08-26T01:55:00.284Z,27.43
2017-08-26T01:57:27.717Z,35.50
2017-08-26T01:59:55.166Z,29.60
2017-08-26T02:02:22.594Z,26.40
2017-08-26T02:04:50.033Z,33.00
2017-08-26T02:07:17.468Z,27.03
2017-08-26T02:09:44.904Z,27.57
2017-08-26T02:12:12.328Z,34.57
2017-08-26T02:14:39.766Z,27.20
2017-08-26T02:17:07.212Z,33.20
2017-08-26T02:19:34.650Z,34.13
2017-08-26T02:22:02.093Z,25.13
2017-08-26T02:24:29.529Z,41.73
2017-08-26T02:26:56.965Z,28.63
2017-08-26T02:29:24.395Z,30.63
2017-08-26T02:31:51.839Z,43.43
2017-08-26T02:34:19.262Z,35.33
2017-08-26T02:36:46.707Z,32.67
2017-08-26T02:39:14.144Z,38.33
2017-08-26T02:41:41.575Z,36.10
2017-08-26T02:44:09.017Z,30.90
2017-08-26T02:46:36.452Z,32.40
2017-08-26T02:49:03.890Z,29.20
2017-08-26T02:51:31.320Z,31.90
2017-08-26T02:53:58.764Z,35.33
2017-08-26T02:56:26.221Z,28.53
2017-08-26T02:58:53.648Z,37.97
2017-08-26T03:01:21.089Z,31.00
2017-08-26T03:03:48.517Z,37.07
2017-08-26T03:06:15.956Z,29.60
2017-08-26T03:08:43.400Z,34.13
2017-08-26T03:11:10.840Z,32.30
2017-08-26T03:13:38.268Z,34.07
2017-08-26T03:16:05.695Z,33.10
2017-08-26T03:18:33.145Z,28.90
2017-08-26T03:21:00.582Z,31.33
2017-08-26T03:23:28.032Z,32.50
2017-08-26T03:25:55.461Z,31.10
2017-08-26T03:28:22.916Z,34.80
2017-08-26T03:30:50.353Z,29.63
2017-08-26T03:33:17.793Z,22.70
2017-08-26T03:35:45.233Z,21.00
2017-08-26T03:38:12.680Z,22.93
2017-08-26T03:40:40.108Z,26.23
2017-08-26T03:43:07.550Z,27.50
2017-08-26T03:45:34.985Z,24.83
2017-08-26T03:48:02.420Z,23.77
2017-08-26T03:50:29.861Z,21.10
2017-08-26T03:52:57.300Z,27.37
2017-08-26T03:55:24.737Z,26.50
2017-08-26T03:57:52.168Z,27.73
2017-08-26T04:00:19.606Z,27.80
2017-08-26T04:02:47.044Z,33.40
2017-08-26T04:05:14.483Z,26.83
2017-08-26T04:07:41.916Z,29.07
2017-08-26T04:10:09.354Z,31.77
2017-08-26T04:12:36.808Z,29.47
2017-08-26T04:15:04.236Z,31.47
2017-08-26T04:17:31.673Z,40.40
2017-08-26T04:19:59.108Z,33.97
2017-08-26T04:22:26.544Z,30.40
2017-08-26T04:24:53.981Z,30.87
2017-08-26T04:27:21.428Z,28.33
2017-08-26T04:29:50.872Z,35.80
2017-08-26T04:32:18.320Z,31.87
2017-08-26T04:34:45.807Z,26.17
2017-08-26T04:37:13.249Z,32.53
2017-08-26T04:39:40.683Z,29.47
2017-08-26T04:42:08.112Z,30.50
2017-08-26T04:44:35.561Z,31.43
2017-08-26T04:47:05.021Z,32.80
2017-08-26T04:49:32.452Z,33.43
2017-08-26T04:51:59.884Z,38.97
2017-08-26T04:54:27.329Z,32.43
2017-08-26T04:56:54.763Z,32.40
2017-08-26T04:59:22.191Z,36.33
2017-08-26T05:01:49.628Z,47.37
2017-08-26T05:04:17.064Z,30.03
2017-08-26T05:06:44.492Z,34.73
2017-08-26T05:09:11.924Z,29.87
2017-08-26T05:11:39.356Z,26.77
2017-08-26T05:14:06.796Z,27.90
2017-08-26T05:16:34.253Z,36.20
2017-08-26T05:19:01.669Z,21.13
2017-08-26T05:21:29.107Z,28.80
2017-08-26T05:23:56.532Z,25.70
2017-08-26T05:26:23.972Z,23.47
2017-08-26T05:28:51.404Z,26.97
2017-08-26T05:31:18.840Z,24.20
2017-08-26T05:33:46.268Z,26.87
2017-08-26T05:36:13.704Z,23.83
2017-08-26T05:38:41.145Z,21.90
2017-08-26T05:41:08.584Z,21.90
2017-08-26T05:43:36.025Z,21.70
2017-08-26T05:46:03.485Z,22.60
2017-08-26T05:48:31.849Z,19.07
2017-08-26T05:50:59.301Z,24.00
2017-08-26T05:53:26.766Z,23.67
2017-08-26T05:55:54.213Z,18.70
2017-08-26T05:58:21.648Z,21.50
2017-08-26T06:00:49.145Z,14.33
2017-08-26T06:03:16.573Z,17.77
2017-08-26T06:05:44.018Z,18.87
2017-08-26T06:08:13.456Z,28.17
2017-08-26T06:10:40.893Z,21.83
2017-08-26T06:13:08.337Z,20.63
2017-08-26T06:15:35.780Z,16.57
2017-08-26T06:18:03.208Z,13.57
2017-08-26T06:20:31.664Z,19.23
2017-08-26T06:22:59.110Z,19.60
2017-08-26T06:25:26.555Z,14.63
2017-08-26T06:27:53.994Z,23.80
2017-08-26T06:30:21.432Z,16.70
2017-08-26T06:32:48.889Z,17.70
2017-08-26T06:35:16.356Z,15.80
2017-08-26T06:37:43.780Z,18.30
2017-08-26T06:40:12.250Z,18.10
2017-08-26T06:42:39.693Z,17.93
2017-08-26T06:45:07.124Z,16.47
2017-08-26T06:47:34.568Z,18.13
2017-08-26T06:50:02.010Z,15.77
2017-08-26T06:52:29.463Z,16.17
2017-08-26T06:54:56.900Z,16.10
2017-08-26T06:57:24.346Z,13.17
2017-08-26T06:59:51.775Z,18.30
2017-08-26T07:02:19.214Z,14.40
2017-08-26T07:04:46.643Z,13.63
2017-08-26T07:07:14.085Z,16.50
2017-08-26T07:09:41.529Z,17.13
2017-08-26T07:12:08.976Z,13.70
2017-08-26T07:14:36.414Z,16.93
2017-08-26T07:17:03.864Z,17.17
2017-08-26T07:19:32.368Z,14.00
2017-08-26T07:21:59.796Z,19.97
2017-08-26T07:24:27.232Z,13.83
2017-08-26T07:26:54.673Z,14.07
2017-08-26T07:29:22.116Z,12.90
2017-08-26T07:31:49.555Z,16.50
2017-08-26T07:34:16.997Z,15.10
2017-08-26T07:36:44.472Z,16.33
2017-08-26T07:39:11.914Z,14.73
2017-08-26T07:41:39.389Z,13.80
2017-08-26T07:44:07.861Z,14.73
2017-08-26T07:46:35.295Z,14.30
2017-08-26T07:49:02.748Z,17.07
2017-08-26T07:51:30.184Z,17.40
2017-08-26T07:53:57.631Z,13.13
2017-08-26T07:56:25.061Z,18.67
2017-08-26T07:58:52.501Z,15.30
2017-08-26T08:01:19.964Z,19.80
2017-08-26T08:03:47.425Z,21.10
2017-08-26T08:06:14.864Z,33.37
2017-08-26T08:08:42.309Z,55.83
2017-08-26T08:11:09.749Z,49.13
2017-08-26T08:13:37.189Z,52.63
2017-08-26T08:16:04.640Z,61.37
2017-08-26T08:18:32.502Z,53.30
2017-08-26T08:20:59.928Z,56.13
2017-08-26T08:23:27.381Z,61.40
2017-08-26T08:25:54.844Z,55.30
2017-08-26T08:28:22.277Z,59.73
2017-08-26T08:30:49.713Z,56.23
2017-08-26T08:33:17.154Z,54.40
2017-08-26T08:35:52.735Z,48.03
2017-08-26T08:38:20.164Z,52.93
2017-08-26T08:40:47.616Z,44.67
2017-08-26T08:43:15.044Z,48.37
2017-08-26T08:45:42.543Z,48.20
2017-08-26T08:48:10.036Z,40.27
2017-08-26T08:50:37.476Z,42.77
2017-08-26T08:53:04.916Z,42.67
2017-08-26T08:55:32.365Z,43.47
2017-08-26T08:57:59.878Z,35.37
2017-08-26T09:00:27.324Z,38.57
2017-08-26T09:02:54.756Z,40.03
2017-08-26T09:05:22.215Z,41.80
2017-08-26T09:07:49.660Z,41.63
2017-08-26T09:10:17.109Z,31.93
2017-08-26T09:12:44.589Z,37.73
2017-08-26T09:15:12.039Z,33.30
2017-08-26T09:17:39.470Z,33.13
2017-08-26T09:20:06.929Z,32.50
2017-08-26T09:22:34.371Z,32.20
2017-08-26T09:25:01.823Z,29.80
2017-08-26T09:27:29.262Z,29.70
2017-08-26T09:29:56.771Z,29.50
2017-08-26T09:32:24.320Z,31.30
2017-08-26T09:34:51.767Z,28.20
2017-08-26T09:37:19.213Z,28.17
2017-08-26T09:39:46.652Z,26.20
2017-08-26T09:42:14.096Z,27.30
2017-08-26T09:44:41.525Z,26.50
2017-08-26T09:47:08.973Z,32.93
2017-08-26T09:49:36.407Z,25.63
2017-08-26T09:52:03.857Z,31.40
2017-08-26T09:54:31.284Z,26.87
2017-08-26T09:56:58.793Z,26.00
2017-08-26T09:59:28.245Z,27.00
2017-08-26T10:01:55.683Z,35.10
2017-08-26T10:04:23.112Z,30.07
2017-08-26T10:06:50.565Z,23.57
2017-08-26T10:09:17.996Z,40.40
2017-08-26T10:11:45.433Z,25.50
2017-08-26T10:14:12.876Z,25.20
2017-08-26T10:16:40.379Z,19.70
2017-08-26T10:19:10.977Z,29.97
2017-08-26T10:21:38.412Z,25.47
2017-08-26T10:24:05.845Z,27.67
2017-08-26T10:26:34.106Z,26.80
2017-08-26T10:29:01.536Z,29.47
2017-08-26T10:31:28.995Z,27.30
2017-08-26T10:33:56.420Z,25.40
2017-08-26T10:36:23.892Z,23.67
2017-08-26T10:38:51.325Z,26.03
2017-08-26T10:41:18.812Z,28.50
2017-08-26T10:43:46.257Z,22.10
2017-08-26T10:46:14.745Z,21.27
2017-08-26T10:48:43.348Z,21.40
2017-08-26T10:51:10.792Z,19.83
2017-08-26T10:53:38.225Z,19.77
2017-08-26T10:56:09.587Z,25.13
2017-08-26T10:58:37.020Z,24.00
2017-08-26T11:01:04.459Z,22.07
2017-08-26T11:03:35.072Z,17.57
2017-08-26T11:06:02.489Z,22.47
2017-08-26T11:08:29.921Z,23.90
2017-08-26T11:10:57.392Z,24.07
2017-08-26T11:13:24.839Z,19.40
2017-08-26T11:15:52.269Z,21.23
2017-08-26T11:18:19.716Z,26.60
2017-08-26T11:20:47.224Z,22.20
2017-08-26T11:23:14.674Z,25.50
2017-08-26T11:25:42.105Z,30.93
2017-08-26T11:28:09.568Z,29.07
2017-08-26T11:30:37.002Z,28.90
2017-08-26T11:33:04.445Z,26.87
2017-08-26T11:35:31.878Z,24.87
2017-08-26T11:38:01.430Z,21.40
2017-08-26T11:40:28.848Z,19.07
2017-08-26T11:42:56.321Z,18.77
2017-08-26T11:45:25.847Z,19.13
2017-08-26T11:47:56.797Z,19.43
2017-08-26T11:50:24.302Z,18.67
2017-08-26T11:52:51.729Z,17.07
2017-08-26T11:55:19.167Z,15.27
2017-08-26T11:57:46.606Z,22.13
2017-08-26T12:00:14.041Z,16.57
2017-08-26T12:02:41.473Z,17.33
2017-08-26T12:05:08.911Z,16.73
2017-08-26T12:07:36.358Z,21.43
2017-08-26T12:10:03.802Z,19.20
2017-08-26T12:12:31.285Z,15.50
2017-08-26T12:14:58.720Z,16.67
2017-08-26T12:17:26.162Z,17.60
2017-08-26T12:19:53.601Z,16.00
2017-08-26T12:22:21.057Z,14.57
2017-08-26T12:24:48.493Z,15.40
2017-08-26T12:27:15.933Z,15.73
2017-08-26T12:29:43.376Z,14.83
2017-08-26T12:32:10.812Z,20.33
2017-08-26T12:34:38.245Z,15.40
2017-08-26T12:37:05.693Z,21.10
2017-08-26T12:39:33.120Z,23.30
2017-08-26T12:42:00.561Z,13.87
2017-08-26T12:44:28.017Z,15.00
2017-08-26T12:46:55.456Z,13.40
2017-08-26T12:49:22.914Z,16.13
2017-08-26T12:51:50.416Z,14.23
2017-08-26T12:54:17.841Z,11.80
2017-08-26T12:56:45.431Z,12.10
2017-08-26T12:59:12.852Z,12.73
2017-08-26T13:01:40.342Z,11.80
2017-08-26T13:04:07.772Z,14.47
2017-08-26T13:06:35.217Z,15.50
2017-08-26T13:09:02.657Z,14.23
2017-08-26T13:11:30.118Z,13.90
2017-08-26T13:13:57.566Z,11.40
2017-08-26T13:16:24.993Z,11.50
2017-08-26T13:18:52.441Z,13.27
2017-08-26T13:21:19.876Z,17.50
2017-08-26T13:23:47.312Z,11.13
2017-08-26T13:26:14.754Z,11.67
2017-08-26T13:28:42.229Z,12.47
2017-08-26T13:31:09.684Z,11.30
2017-08-26T13:33:37.126Z,11.50
2017-08-26T13:36:04.564Z,13.87
2017-08-26T13:38:32.728Z,30.37
2017-08-26T13:41:00.148Z,9.63
2017-08-26T13:43:27.584Z,12.10
2017-08-26T13:45:55.030Z,12.27
2017-08-26T13:48:22.463Z,11.70
2017-08-26T13:50:49.892Z,11.13
2017-08-26T13:53:17.367Z,13.80
2017-08-26T13:55:44.784Z,11.37
2017-08-26T13:58:12.229Z,11.47
2017-08-26T14:00:39.660Z,12.17
2017-08-26T14:03:07.105Z,9.70
2017-08-26T14:05:34.523Z,10.23
2017-08-26T14:08:01.988Z,12.00
2017-08-26T14:10:29.412Z,11.30
2017-08-26T14:12:56.904Z,17.53
2017-08-26T14:15:24.347Z,11.30
2017-08-26T14:17:51.774Z,10.00
2017-08-26T14:20:19.209Z,10.27
2017-08-26T14:22:46.648Z,14.80
2017-08-26T14:25:14.082Z,14.33
2017-08-26T14:27:41.516Z,12.53
2017-08-26T14:30:08.996Z,10.93
2017-08-26T14:32:36.467Z,11.20
2017-08-26T14:35:03.908Z,13.17
2017-08-26T14:37:31.346Z,11.77
2017-08-26T14:39:58.781Z,12.43
2017-08-26T14:42:26.226Z,15.60
2017-08-26T14:44:53.660Z,13.20
2017-08-26T14:47:21.122Z,12.10
2017-08-26T14:49:48.654Z,12.07
2017-08-26T14:52:16.108Z,11.17
2017-08-26T14:54:43.572Z,11.17
2017-08-26T14:57:11.004Z,11.77
2017-08-26T14:59:38.449Z,12.20
2017-08-26T15:02:05.944Z,14.03
2017-08-26T15:04:33.413Z,12.90
2017-08-26T15:07:00.861Z,13.87
2017-08-26T15:09:28.305Z,11.20
2017-08-26T15:11:55.736Z,11.83
2017-08-26T15:14:23.237Z,13.60
2017-08-26T15:16:50.662Z,9.97
2017-08-26T15:19:18.101Z,11.30
2017-08-26T15:21:46.523Z,10.63
2017-08-26T15:24:13.981Z,11.13
2017-08-26T15:26:41.445Z,10.70
2017-08-26T15:29:08.889Z,12.80
2017-08-26T15:31:36.322Z,10.47
2017-08-26T15:34:03.749Z,10.50
2017-08-26T15:36:31.193Z,11.67
2017-08-26T15:38:59.636Z,11.90
2017-08-26T15:41:27.073Z,13.30
2017-08-26T15:43:54.507Z,13.80
2017-08-26T15:46:21.958Z,11.17
2017-08-26T15:48:49.385Z,11.47
2017-08-26T15:51:16.824Z,11.13
2017-08-26T15:53:44.265Z,10.30
2017-08-26T15:56:11.700Z,13.90
2017-08-26T15:58:40.121Z,11.33
2017-08-26T16:01:07.564Z,12.00
2017-08-26T16:03:34.992Z,14.53
2017-08-26T16:06:02.432Z,10.97
2017-08-26T16:08:29.860Z,11.33
2017-08-26T16:10:57.300Z,10.93
2017-08-26T16:13:24.728Z,10.97
2017-08-26T16:15:52.172Z,11.07
2017-08-26T16:18:19.640Z,10.47
2017-08-26T16:20:47.076Z,11.93
2017-08-26T16:23:14.517Z,13.13
2017-08-26T16:25:41.948Z,10.47
2017-08-26T16:28:09.392Z,15.30
2017-08-26T16:30:37.017Z,12.73
2017-08-26T16:33:04.447Z,10.57
2017-08-26T16:35:31.876Z,10.50
2017-08-26T16:37:59.316Z,10.63
2017-08-26T16:40:26.768Z,12.20
2017-08-26T16:42:54.211Z,11.97
2017-08-26T16:45:21.645Z,14.37
2017-08-26T16:47:49.100Z,13.47
2017-08-26T16:50:16.523Z,10.83
2017-08-26T16:52:43.956Z,11.60
2017-08-26T16:55:14.596Z,12.73
2017-08-26T16:57:42.033Z,10.30
2017-08-26T17:00:09.466Z,11.20
2017-08-26T17:02:36.904Z,12.40
2017-08-26T17:05:04.337Z,12.07
2017-08-26T17:07:31.784Z,11.90
2017-08-26T17:09:59.236Z,15.40
2017-08-26T17:12:26.696Z,15.40
2017-08-26T17:14:54.152Z,11.83
2017-08-26T17:17:21.584Z,11.17
2017-08-26T17:19:49.060Z,12.50
2017-08-26T17:22:16.524Z,13.20
2017-08-26T17:24:43.956Z,11.63
2017-08-26T17:27:11.497Z,14.30
2017-08-26T17:29:39.913Z,13.13
2017-08-26T17:32:08.553Z,15.60
2017-08-26T17:34:35.973Z,13.40
2017-08-26T17:37:03.400Z,12.77
2017-08-26T17:39:30.837Z,12.53
2017-08-26T17:42:01.613Z,15.33
2017-08-26T17:44:29.068Z,13.60
2017-08-26T17:46:56.528Z,21.37
2017-08-26T17:49:23.979Z,13.27
2017-08-26T17:51:51.413Z,14.13
2017-08-26T17:54:18.916Z,15.00
2017-08-26T17:56:46.362Z,14.70
2017-08-26T17:59:13.796Z,14.17
2017-08-26T18:01:41.225Z,19.43
2017-08-26T18:04:09.690Z,14.50
2017-08-26T18:06:37.162Z,13.80
2017-08-26T18:09:04.632Z,16.13
2017-08-26T18:11:32.044Z,21.67
2017-08-26T18:13:59.505Z,14.73
2017-08-26T18:16:26.932Z,17.60
2017-08-26T18:18:54.382Z,19.70
2017-08-26T18:21:21.809Z,16.90
2017-08-26T18:23:49.248Z,18.23
2017-08-26T18:26:16.685Z,16.00
2017-08-26T18:28:44.267Z,15.03
2017-08-26T18:31:12.688Z,19.63
2017-08-26T18:33:40.148Z,16.73
2017-08-26T18:36:07.571Z,17.00
2017-08-26T18:38:35.008Z,20.90
2017-08-26T18:41:02.446Z,18.60
2017-08-26T18:43:29.882Z,22.77
2017-08-26T18:46:00.595Z,21.33
2017-08-26T18:48:28.032Z,24.67
2017-08-26T18:50:55.544Z,21.87
2017-08-26T18:53:22.973Z,21.70
2017-08-26T18:55:50.417Z,24.20
2017-08-26T18:58:17.910Z,28.47
2017-08-26T19:00:45.427Z,28.90
2017-08-26T19:03:12.877Z,27.37
2017-08-26T19:05:40.331Z,27.80
2017-08-26T19:08:07.763Z,24.87
2017-08-26T19:10:36.208Z,27.43
2017-08-26T19:13:03.716Z,22.80
2017-08-26T19:15:31.200Z,22.57
2017-08-26T19:17:58.644Z,25.27
2017-08-26T19:20:26.094Z,27.30
2017-08-26T19:22:53.673Z,25.60
2017-08-26T19:25:21.124Z,26.70
2017-08-26T19:27:48.542Z,36.50
2017-08-26T19:30:15.989Z,30.13
2017-08-26T19:32:43.447Z,23.50
2017-08-26T19:35:10.879Z,29.40
2017-08-26T19:37:38.324Z,33.07
2017-08-26T19:40:05.780Z,30.20
2017-08-26T19:42:33.222Z,23.77
2017-08-26T19:45:00.662Z,24.80
2017-08-26T19:47:28.131Z,26.10
2017-08-26T19:49:55.626Z,24.70
2017-08-26T19:52:23.104Z,25.77
2017-08-26T19:54:51.562Z,24.73
2017-08-26T19:57:19.004Z,28.30
2017-08-26T19:59:46.432Z,25.47
2017-08-26T20:02:13.942Z,25.90
2017-08-26T20:04:41.375Z,30.47
2017-08-26T20:07:08.817Z,33.13
2017-08-26T20:09:36.257Z,33.80
2017-08-26T20:12:03.713Z,30.83
2017-08-26T20:14:31.153Z,31.17
2017-08-26T20:16:58.584Z,26.97
2017-08-26T20:19:26.022Z,30.00
2017-08-26T20:21:53.478Z,33.80
2017-08-26T20:24:20.917Z,22.00
2017-08-26T20:26:48.369Z,26.03
2017-08-26T20:29:15.809Z,26.10
2017-08-26T20:31:43.256Z,24.83
2017-08-26T20:34:10.692Z,26.13
2017-08-26T20:36:38.181Z,25.63
2017-08-26T20:39:05.697Z,25.30
2017-08-26T20:41:33.165Z,22.53
2017-08-26T20:44:00.605Z,32.53
2017-08-26T20:46:28.045Z,25.83
2017-08-26T20:48:55.495Z,30.43
2017-08-26T20:51:22.930Z,25.00
2017-08-26T20:53:50.373Z,23.23
2017-08-26T20:56:17.808Z,27.23
2017-08-26T20:58:45.248Z,23.97
2017-08-26T21:01:12.696Z,28.03
2017-08-26T21:03:40.144Z,28.33
2017-08-26T21:06:07.581Z,29.30
2017-08-26T21:08:35.024Z,29.70
2017-08-26T21:11:02.466Z,32.23
2017-08-26T21:13:29.908Z,25.93
2017-08-26T21:15:57.336Z,30.07
2017-08-26T21:18:24.781Z,31.30
2017-08-26T21:20:52.209Z,31.03
2017-08-26T21:23:19.658Z,29.40
2017-08-26T21:25:53.270Z,30.70
2017-08-26T21:28:20.717Z,31.37
2017-08-26T21:30:48.165Z,31.07
2017-08-26T21:33:15.606Z,34.17
2017-08-26T21:35:44.056Z,38.47
2017-08-26T21:38:11.515Z,36.53
2017-08-26T21:40:38.978Z,35.20
2017-08-26T21:43:12.218Z,34.50
2017-08-26T21:45:39.645Z,34.60
2017-08-26T21:48:07.079Z,38.07
2017-08-26T21:50:34.568Z,33.03
2017-08-26T21:53:02.049Z,31.20
2017-08-26T21:55:29.511Z,33.30
2017-08-26T21:57:56.932Z,31.23
2017-08-26T22:00:24.442Z,34.30
2017-08-26T22:02:51.881Z,34.60
2017-08-26T22:05:23.694Z,32.67
2017-08-26T22:07:51.136Z,30.60
2017-08-26T22:10:18.586Z,28.70
2017-08-26T22:12:46.045Z,31.30
2017-08-26T22:15:13.498Z,29.73
2017-08-26T22:17:40.964Z,28.10
2017-08-26T22:20:08.405Z,27.33
2017-08-26T22:22:35.844Z,29.33
2017-08-26T22:25:03.311Z,30.90
2017-08-26T22:27:30.748Z,34.33
2017-08-26T22:29:58.189Z,31.83
2017-08-26T22:32:25.654Z,30.37
2017-08-26T22:34:53.088Z,33.23
2017-08-26T22:37:20.537Z,35.27
2017-08-26T22:39:47.968Z,31.50
2017-08-26T22:42:15.408Z,34.53
2017-08-26T22:44:42.853Z,31.27
2017-08-26T22:47:10.292Z,33.03
2017-08-26T22:49:37.753Z,28.80
2017-08-26T22:52:05.185Z,31.93
2017-08-26T22:54:32.622Z,30.20
2017-08-26T22:57:00.066Z,35.70
2017-08-26T22:59:27.500Z,29.73
2017-08-26T23:01:54.944Z,28.33
2017-08-26T23:04:22.386Z,34.20
2017-08-26T23:06:49.897Z,26.97
2017-08-26T23:09:17.341Z,30.40
2017-08-26T23:11:44.781Z,27.10
2017-08-26T23:14:12.214Z,27.40
2017-08-26T23:16:39.653Z,29.57
2017-08-26T23:19:07.095Z,27.47
2017-08-26T23:21:34.533Z,26.40
2017-08-26T23:24:01.969Z,28.70
2017-08-26T23:26:29.417Z,29.33
2017-08-26T23:28:56.854Z,29.90
2017-08-26T23:31:24.291Z,28.17
2017-08-26T23:33:51.755Z,26.80
2017-08-26T23:36:19.190Z,31.13
2017-08-26T23:38:46.629Z,26.03
2017-08-26T23:41:14.069Z,26.47
2017-08-26T23:43:41.513Z,31.40
2017-08-26T23:46:08.948Z,29.93
2017-08-26T23:48:36.392Z,28.40
2017-08-26T23:51:03.832Z,33.97
2017-08-26T23:53:31.275Z,29.97
2017-08-26T23:55:58.712Z,32.30
2017-08-26T23:58:26.152Z,30.20
